createdAt,value
2023-05-14T00:00:37.807Z,9.45
2023-05-14T00:03:04.311Z,9.40
2023-05-14T00:05:30.744Z,9.85
2023-05-14T00:07:58.221Z,8.43
2023-05-14T00:10:24.984Z,8.93
2023-05-14T00:12:55.928Z,9.82
2023-05-14T00:15:22.254Z,9.63
2023-05-14T00:17:52.493Z,9.38
2023-05-14T00:20:21.555Z,10.30
2023-05-14T00:22:49.092Z,9.60
2023-05-14T00:25:15.433Z,9.52
2023-05-14T00:27:42.859Z,10.20
2023-05-14T00:30:12.221Z,8.68
2023-05-14T00:32:38.878Z,10.13
2023-05-14T00:35:05.568Z,9.07
2023-05-14T00:37:33.883Z,9.52
2023-05-14T00:40:00.156Z,8.40
2023-05-14T00:42:26.437Z,8.23
2023-05-14T00:44:55.225Z,9.23
2023-05-14T00:47:22.137Z,9.13
2023-05-14T00:49:48.476Z,9.20
2023-05-14T00:52:15.202Z,9.38
2023-05-14T00:54:42.824Z,9.02
2023-05-14T00:57:10.641Z,8.85
2023-05-14T00:59:42.434Z,9.00
2023-05-14T01:02:08.710Z,9.98
2023-05-14T01:04:38.198Z,9.13
2023-05-14T01:07:11.855Z,8.20
2023-05-14T01:09:56.745Z,8.98
2023-05-14T01:12:26.212Z,10.32
2023-05-14T01:14:53.597Z,7.80
2023-05-14T01:17:20.530Z,8.50
2023-05-14T01:19:47.505Z,9.02
2023-05-14T01:22:15.732Z,8.55
2023-05-14T01:24:42.138Z,9.32
2023-05-14T01:27:25.895Z,8.30
2023-05-14T01:30:12.352Z,7.78
2023-05-14T01:32:49.171Z,8.82
2023-05-14T01:35:15.640Z,8.50
2023-05-14T01:37:44.550Z,9.35
2023-05-14T01:40:11.263Z,9.00
2023-05-14T01:42:47.402Z,8.25
2023-05-14T01:45:13.623Z,9.02
2023-05-14T01:47:40.847Z,9.38
2023-05-14T01:50:07.226Z,7.97
2023-05-14T01:52:34.385Z,9.02
2023-05-14T01:55:04.354Z,9.57
2023-05-14T01:57:30.960Z,9.55
2023-05-14T01:59:57.331Z,8.15
2023-05-14T02:02:26.276Z,8.27
2023-05-14T02:04:55.537Z,9.05
2023-05-14T02:07:21.812Z,8.43
2023-05-14T02:09:48.057Z,8.80
2023-05-14T02:12:16.779Z,8.52
2023-05-14T02:14:43.781Z,7.65
2023-05-14T02:17:10.023Z,9.05
2023-05-14T02:19:37.541Z,8.43
2023-05-14T02:22:03.962Z,7.38
2023-05-14T02:24:35.872Z,7.90
2023-05-14T02:27:02.133Z,8.23
2023-05-14T02:29:28.496Z,8.65
2023-05-14T02:31:59.213Z,8.75
2023-05-14T02:34:27.918Z,8.43
2023-05-14T02:36:54.168Z,9.80
2023-05-14T02:39:27.664Z,9.80
2023-05-14T02:41:54.062Z,8.60
2023-05-14T02:44:20.298Z,8.00
2023-05-14T02:46:46.681Z,8.18
2023-05-14T02:49:14.318Z,8.48
2023-05-14T02:51:45.971Z,8.68
2023-05-14T02:54:12.271Z,9.30
2023-05-14T02:56:38.582Z,8.32
2023-05-14T02:59:04.904Z,9.00
2023-05-14T03:01:32.548Z,7.97
2023-05-14T03:04:02.250Z,7.75
2023-05-14T03:06:28.443Z,8.93
2023-05-14T03:08:54.780Z,8.60
2023-05-14T03:11:22.793Z,8.07
2023-05-14T03:13:49.115Z,8.93
2023-05-14T03:16:17.378Z,8.10
2023-05-14T03:18:46.460Z,8.40
2023-05-14T03:21:18.461Z,8.10
2023-05-14T03:23:44.737Z,8.63
2023-05-14T03:26:11.000Z,8.07
2023-05-14T03:28:37.215Z,8.88
2023-05-14T03:31:03.463Z,7.93
2023-05-14T03:33:29.686Z,8.45
2023-05-14T03:35:59.080Z,8.63
2023-05-14T03:38:27.958Z,8.55
2023-05-14T03:40:54.228Z,7.57
2023-05-14T03:43:20.462Z,8.77
2023-05-14T03:45:46.960Z,8.80
2023-05-14T03:48:13.319Z,8.13
2023-05-14T03:50:39.562Z,9.00
2023-05-14T03:53:08.232Z,8.20
2023-05-14T03:55:34.541Z,9.52
2023-05-14T03:58:00.792Z,8.95
2023-05-14T04:00:30.762Z,8.82
2023-05-14T04:03:00.108Z,7.38
2023-05-14T04:05:26.525Z,7.22
2023-05-14T04:07:58.368Z,9.32
2023-05-14T04:10:26.043Z,7.72
2023-05-14T04:12:52.444Z,7.63
2023-05-14T04:15:18.752Z,8.60
2023-05-14T04:17:45.007Z,7.25
2023-05-14T04:20:11.326Z,8.48
2023-05-14T04:22:37.950Z,8.95
2023-05-14T04:25:04.530Z,8.85
2023-05-14T04:27:33.326Z,6.80
2023-05-14T04:30:00.377Z,8.35
2023-05-14T04:32:27.659Z,7.90
2023-05-14T04:34:55.098Z,6.90
2023-05-14T04:37:21.478Z,7.90
2023-05-14T04:39:47.812Z,8.23
2023-05-14T04:42:14.059Z,6.95
2023-05-14T04:44:40.336Z,7.85
2023-05-14T04:47:06.676Z,8.02
2023-05-14T04:49:33.188Z,7.35
2023-05-14T04:51:59.424Z,8.32
2023-05-14T04:54:25.690Z,6.97
2023-05-14T04:56:51.994Z,7.85
2023-05-14T04:59:18.242Z,8.02
2023-05-14T05:01:47.583Z,7.07
2023-05-14T05:04:16.812Z,7.53
2023-05-14T05:06:43.086Z,7.50
2023-05-14T05:09:09.317Z,6.65
2023-05-14T05:11:35.511Z,7.28
2023-05-14T05:14:01.760Z,7.28
2023-05-14T05:16:28.341Z,6.85
2023-05-14T05:18:54.778Z,6.63
2023-05-14T05:21:23.770Z,5.88
2023-05-14T05:23:50.115Z,7.40
2023-05-14T05:26:17.556Z,6.88
2023-05-14T05:28:46.521Z,6.72
2023-05-14T05:31:12.802Z,7.43
2023-05-14T05:33:40.891Z,6.30
2023-05-14T05:36:07.312Z,6.32
2023-05-14T05:38:33.776Z,7.90
2023-05-14T05:41:03.078Z,6.78
2023-05-14T05:43:29.268Z,7.25
2023-05-14T05:45:55.494Z,6.88
2023-05-14T05:48:21.702Z,6.28
2023-05-14T05:50:50.539Z,6.90
2023-05-14T05:53:17.658Z,7.10
2023-05-14T05:55:45.528Z,7.13
2023-05-14T05:58:11.994Z,6.10
2023-05-14T06:00:38.202Z,7.40
2023-05-14T06:03:04.515Z,7.28
2023-05-14T06:05:34.763Z,6.93
2023-05-14T06:08:02.512Z,6.43
2023-05-14T06:10:29.013Z,6.65
2023-05-14T06:12:56.138Z,7.68
2023-05-14T06:15:22.711Z,7.07
2023-05-14T06:17:50.608Z,6.32
2023-05-14T06:20:19.140Z,6.18
2023-05-14T06:22:45.426Z,6.20
2023-05-14T06:25:11.752Z,6.68
2023-05-14T06:27:40.738Z,6.38
2023-05-14T06:30:09.591Z,6.32
2023-05-14T06:32:37.040Z,7.47
2023-05-14T06:35:05.775Z,5.95
2023-05-14T06:37:32.003Z,6.68
2023-05-14T06:39:58.248Z,6.32
2023-05-14T06:42:24.516Z,7.30
2023-05-14T06:44:50.765Z,7.13
2023-05-14T06:47:16.967Z,6.30
2023-05-14T06:49:43.380Z,7.28
2023-05-14T06:52:09.615Z,6.80
2023-05-14T06:54:35.837Z,6.70
2023-05-14T06:57:03.361Z,6.85
2023-05-14T06:59:30.256Z,6.90
2023-05-14T07:01:56.593Z,6.40
2023-05-14T07:04:22.943Z,6.30
2023-05-14T07:06:49.400Z,6.40
2023-05-14T07:09:20.337Z,6.30
2023-05-14T07:11:46.654Z,6.35
2023-05-14T07:14:14.676Z,6.25
2023-05-14T07:16:40.983Z,5.65
2023-05-14T07:19:10.009Z,6.32
2023-05-14T07:21:40.945Z,5.22
2023-05-14T07:24:07.373Z,6.07
2023-05-14T07:26:33.953Z,6.07
2023-05-14T07:29:01.420Z,5.13
2023-05-14T07:31:28.140Z,5.15
2023-05-14T07:33:54.658Z,5.18
2023-05-14T07:36:21.460Z,5.75
2023-05-14T07:38:48.351Z,6.15
2023-05-14T07:41:19.505Z,5.18
2023-05-14T07:43:45.786Z,5.88
2023-05-14T07:46:14.802Z,5.10
2023-05-14T07:48:41.578Z,5.00
2023-05-14T07:51:08.095Z,5.53
2023-05-14T07:53:34.483Z,5.10
2023-05-14T07:56:01.122Z,4.70
2023-05-14T07:58:27.667Z,7.45
2023-05-14T08:00:54.710Z,6.00
2023-05-14T08:03:21.256Z,6.18
2023-05-14T08:05:48.797Z,6.40
2023-05-14T08:08:16.439Z,6.20
2023-05-14T08:10:43.183Z,6.72
2023-05-14T08:13:12.204Z,6.90
2023-05-14T08:15:44.086Z,6.60
2023-05-14T08:18:12.003Z,5.90
2023-05-14T08:20:40.004Z,8.02
2023-05-14T08:23:08.972Z,5.93
2023-05-14T08:25:35.615Z,6.50
2023-05-14T08:28:02.080Z,7.22
2023-05-14T08:30:28.665Z,5.65
2023-05-14T08:32:55.333Z,7.05
2023-05-14T08:35:21.795Z,6.55
2023-05-14T08:37:49.879Z,6.13
2023-05-14T08:40:16.601Z,6.05
2023-05-14T08:42:43.855Z,6.97
2023-05-14T08:45:20.212Z,5.80
2023-05-14T08:47:47.938Z,6.28
2023-05-14T08:50:14.739Z,6.55
2023-05-14T08:52:43.623Z,5.93
2023-05-14T08:55:11.678Z,5.97
2023-05-14T08:57:38.592Z,6.70
2023-05-14T09:00:05.609Z,5.25
2023-05-14T09:02:32.397Z,5.43
2023-05-14T09:05:01.989Z,5.38
2023-05-14T09:07:28.783Z,5.43
2023-05-14T09:09:55.601Z,5.82
2023-05-14T09:12:22.452Z,5.53
2023-05-14T09:14:52.367Z,5.25
2023-05-14T09:17:19.307Z,5.82
2023-05-14T09:19:46.162Z,5.78
2023-05-14T09:22:13.694Z,5.82
2023-05-14T09:24:42.560Z,5.13
2023-05-14T09:27:09.949Z,5.72
2023-05-14T09:29:36.466Z,5.47
2023-05-14T09:32:03.309Z,5.05
2023-05-14T09:34:31.789Z,4.75
2023-05-14T09:36:59.704Z,5.30
2023-05-14T09:39:28.888Z,4.75
2023-05-14T09:41:55.473Z,4.85
2023-05-14T09:44:24.186Z,5.45
2023-05-14T09:46:50.905Z,4.80
2023-05-14T09:49:17.860Z,5.10
2023-05-14T09:51:44.447Z,4.85
2023-05-14T09:54:11.008Z,5.07
2023-05-14T09:56:37.815Z,5.03
2023-05-14T09:59:04.297Z,5.35
2023-05-14T10:01:31.255Z,4.63
2023-05-14T10:03:57.796Z,5.00
2023-05-14T10:06:28.943Z,4.47
2023-05-14T10:09:01.892Z,5.72
2023-05-14T10:11:35.098Z,4.57
2023-05-14T10:14:08.411Z,4.70
2023-05-14T10:16:37.183Z,5.68
2023-05-14T10:19:13.188Z,5.22
2023-05-14T10:21:41.367Z,5.45
2023-05-14T10:24:08.294Z,4.88
2023-05-14T10:26:36.019Z,4.45
2023-05-14T10:29:02.658Z,4.82
2023-05-14T10:31:48.203Z,5.90
2023-05-14T10:34:34.176Z,5.80
2023-05-14T10:37:04.425Z,5.00
2023-05-14T10:39:40.810Z,5.18
2023-05-14T10:42:08.603Z,4.90
2023-05-14T10:44:36.170Z,4.70
2023-05-14T10:47:05.974Z,4.88
2023-05-14T10:49:43.006Z,4.50
2023-05-14T10:52:17.488Z,4.95
2023-05-14T10:54:53.992Z,5.10
2023-05-14T10:57:23.633Z,4.90
2023-05-14T10:59:53.878Z,4.30
2023-05-14T11:02:20.401Z,4.80
2023-05-14T11:05:00.777Z,4.38
2023-05-14T11:07:31.230Z,5.28
2023-05-14T11:10:01.797Z,5.72
2023-05-14T11:12:29.058Z,4.28
2023-05-14T11:14:59.102Z,4.85
2023-05-14T11:17:28.968Z,4.55
2023-05-14T11:19:55.975Z,4.63
2023-05-14T11:22:22.738Z,4.32
2023-05-14T11:24:49.870Z,4.32
2023-05-14T11:27:18.184Z,4.55
2023-05-14T11:29:46.463Z,4.80
2023-05-14T11:32:13.510Z,4.25
2023-05-14T11:34:40.313Z,4.30
2023-05-14T11:37:09.103Z,4.68
2023-05-14T11:39:36.547Z,4.07
2023-05-14T11:42:03.704Z,3.85
2023-05-14T11:44:30.724Z,3.65
2023-05-14T11:46:57.769Z,4.65
2023-05-14T11:49:27.705Z,3.90
2023-05-14T11:51:58.017Z,3.65
2023-05-14T11:54:28.304Z,3.80
2023-05-14T11:56:55.386Z,4.15
2023-05-14T11:59:28.458Z,4.65
2023-05-14T12:01:55.315Z,4.03
2023-05-14T12:04:23.233Z,4.35
2023-05-14T12:06:50.147Z,4.07
2023-05-14T12:09:22.978Z,4.18
2023-05-14T12:11:50.359Z,4.15
2023-05-14T12:14:18.505Z,4.65
2023-05-14T12:16:45.460Z,3.90
2023-05-14T12:19:12.330Z,3.88
2023-05-14T12:21:39.649Z,4.25
2023-05-14T12:24:09.997Z,4.38
2023-05-14T12:26:36.622Z,4.80
2023-05-14T12:29:03.623Z,4.20
2023-05-14T12:31:32.951Z,3.72
2023-05-14T12:34:01.846Z,3.53
2023-05-14T12:36:28.406Z,4.15
2023-05-14T12:39:01.718Z,4.00
2023-05-14T12:41:33.973Z,3.58
2023-05-14T12:44:00.383Z,3.75
2023-05-14T12:46:27.799Z,3.78
2023-05-14T12:48:54.600Z,3.22
2023-05-14T12:51:21.212Z,3.85
2023-05-14T12:53:47.733Z,4.07
2023-05-14T12:56:14.323Z,3.88
2023-05-14T12:58:40.796Z,4.05
2023-05-14T13:01:07.199Z,3.83
2023-05-14T13:03:33.657Z,4.05
2023-05-14T13:06:00.118Z,3.40
2023-05-14T13:08:26.910Z,3.53
2023-05-14T13:10:54.320Z,3.20
2023-05-14T13:13:20.733Z,4.25
2023-05-14T13:15:47.188Z,4.43
2023-05-14T13:18:17.914Z,3.28
2023-05-14T13:20:45.328Z,3.40
2023-05-14T13:23:11.792Z,4.00
2023-05-14T13:25:38.251Z,3.58
2023-05-14T13:28:04.894Z,3.90
2023-05-14T13:30:31.365Z,3.75
2023-05-14T13:32:58.533Z,3.42
2023-05-14T13:35:25.350Z,3.97
2023-05-14T13:37:52.028Z,3.47
2023-05-14T13:40:18.693Z,3.88
2023-05-14T13:42:45.129Z,3.90
2023-05-14T13:45:12.445Z,3.63
2023-05-14T13:47:40.217Z,3.50
2023-05-14T13:50:07.089Z,3.70
2023-05-14T13:52:33.610Z,3.88
2023-05-14T13:55:00.184Z,3.42
2023-05-14T13:57:26.682Z,3.92
2023-05-14T13:59:53.190Z,3.53
2023-05-14T14:02:19.663Z,3.58
2023-05-14T14:04:46.224Z,3.35
2023-05-14T14:07:14.045Z,3.95
2023-05-14T14:09:43.390Z,3.08
2023-05-14T14:12:11.931Z,3.58
2023-05-14T14:14:38.175Z,3.53
2023-05-14T14:17:20.910Z,3.60
2023-05-14T14:19:53.216Z,4.15
2023-05-14T14:22:20.666Z,3.50
2023-05-14T14:24:56.996Z,3.67
2023-05-14T14:27:23.302Z,3.92
2023-05-14T14:29:52.426Z,4.03
2023-05-14T14:32:18.684Z,3.65
2023-05-14T14:34:44.904Z,4.00
2023-05-14T14:37:11.083Z,3.80
2023-05-14T14:39:39.779Z,3.05
2023-05-14T14:42:08.834Z,3.67
2023-05-14T14:44:35.057Z,4.20
2023-05-14T14:47:02.438Z,3.80
2023-05-14T14:49:28.713Z,4.18
2023-05-14T14:51:54.986Z,3.55
2023-05-14T14:54:21.184Z,3.35
2023-05-14T14:56:51.177Z,3.35
2023-05-14T14:59:18.344Z,3.85
2023-05-14T15:01:46.217Z,3.38
2023-05-14T15:04:12.561Z,4.07
2023-05-14T15:06:38.870Z,4.03
2023-05-14T15:09:05.194Z,4.03
2023-05-14T15:11:31.582Z,4.07
2023-05-14T15:13:57.920Z,3.83
2023-05-14T15:16:24.200Z,3.92
2023-05-14T15:18:50.794Z,4.72
2023-05-14T15:21:18.406Z,3.97
2023-05-14T15:23:47.812Z,3.88
2023-05-14T15:26:14.104Z,3.95
2023-05-14T15:28:40.387Z,3.72
2023-05-14T15:31:07.100Z,4.00
2023-05-14T15:33:37.412Z,3.88
2023-05-14T15:36:03.760Z,4.43
2023-05-14T15:38:32.450Z,4.13
2023-05-14T15:41:01.686Z,4.30
2023-05-14T15:43:37.032Z,4.10
2023-05-14T15:46:03.456Z,3.90
2023-05-14T15:48:32.452Z,4.13
2023-05-14T15:50:58.738Z,4.07
2023-05-14T15:53:25.191Z,3.83
2023-05-14T15:55:51.508Z,4.32
2023-05-14T15:58:17.737Z,3.88
2023-05-14T16:00:45.155Z,4.32
2023-05-14T16:03:13.354Z,3.72
2023-05-14T16:05:41.922Z,4.10
2023-05-14T16:08:08.253Z,4.55
2023-05-14T16:10:34.497Z,4.07
2023-05-14T16:13:00.819Z,4.10
2023-05-14T16:15:27.158Z,3.70
2023-05-14T16:17:53.614Z,4.00
2023-05-14T16:20:23.142Z,4.43
2023-05-14T16:22:52.197Z,3.70
2023-05-14T16:25:18.681Z,4.13
2023-05-14T16:27:47.197Z,3.85
2023-05-14T16:30:13.484Z,4.25
2023-05-14T16:32:39.711Z,4.78
2023-05-14T16:35:06.030Z,3.88
2023-05-14T16:37:32.264Z,3.65
2023-05-14T16:39:58.670Z,3.30
2023-05-14T16:42:24.988Z,4.70
2023-05-14T16:44:53.329Z,3.92
2023-05-14T16:47:19.564Z,4.28
2023-05-14T16:49:45.863Z,3.85
2023-05-14T16:52:12.076Z,3.70
2023-05-14T16:54:38.360Z,4.07
2023-05-14T16:57:05.213Z,3.78
2023-05-14T16:59:31.597Z,3.33
2023-05-14T17:01:57.850Z,3.83
2023-05-14T17:04:39.778Z,3.38
2023-05-14T17:09:38.030Z,3.35
2023-05-14T17:12:04.390Z,3.55
2023-05-14T17:14:36.556Z,3.50
2023-05-14T17:17:10.901Z,3.85
2023-05-14T17:19:39.928Z,4.82
2023-05-14T17:22:06.516Z,3.97
2023-05-14T17:24:35.749Z,4.40
2023-05-14T17:27:02.266Z,4.80
2023-05-14T17:29:28.485Z,4.53
2023-05-14T17:31:54.954Z,5.07
2023-05-14T17:34:21.418Z,4.90
2023-05-14T17:36:52.064Z,5.35
2023-05-14T17:39:24.482Z,5.32
2023-05-14T17:41:53.830Z,4.93
2023-05-14T17:44:20.304Z,5.35
2023-05-14T17:46:48.089Z,5.38
2023-05-14T17:49:18.371Z,4.65
2023-05-14T17:54:10.980Z,6.75
2023-05-14T17:59:20.395Z,4.70
2023-05-14T18:01:50.693Z,5.20
2023-05-14T18:04:25.856Z,5.38
2023-05-14T18:06:56.884Z,6.18
2023-05-14T18:09:23.330Z,4.80
2023-05-14T18:11:49.698Z,5.53
2023-05-14T18:14:21.353Z,5.00
2023-05-14T18:16:47.611Z,5.97
2023-05-14T18:19:14.064Z,6.40
2023-05-14T18:21:42.178Z,4.78
2023-05-14T18:24:08.672Z,4.88
2023-05-14T18:26:35.038Z,5.07
2023-05-14T18:29:01.346Z,4.70
2023-05-14T18:31:31.406Z,5.63
2023-05-14T18:33:57.812Z,5.50
2023-05-14T18:36:25.238Z,5.00
2023-05-14T18:38:54.440Z,4.95
2023-05-14T18:41:20.733Z,5.40
2023-05-14T18:43:47.016Z,5.72
2023-05-14T18:46:13.460Z,4.75
2023-05-14T18:48:39.817Z,6.10
2023-05-14T18:51:06.246Z,4.65
2023-05-14T18:53:32.543Z,4.68
2023-05-14T18:55:59.855Z,5.50
2023-05-14T18:58:26.254Z,5.45
2023-05-14T19:00:52.466Z,5.15
2023-05-14T19:03:18.797Z,4.60
2023-05-14T19:05:46.927Z,4.50
2023-05-14T19:08:15.489Z,5.03
2023-05-14T19:10:48.374Z,4.55
2023-05-14T19:13:16.119Z,4.72
2023-05-14T19:15:43.074Z,5.22
2023-05-14T19:18:09.500Z,5.10
2023-05-14T19:20:41.266Z,5.10
2023-05-14T19:23:07.534Z,4.68
2023-05-14T19:25:33.819Z,5.45
2023-05-14T19:28:02.994Z,5.80
2023-05-14T19:30:30.995Z,4.50
2023-05-14T19:33:00.209Z,5.22
2023-05-14T19:35:30.537Z,4.38
2023-05-14T19:40:36.582Z,5.05
2023-05-14T19:43:08.410Z,5.50
2023-05-14T19:45:35.104Z,5.90
2023-05-14T19:48:01.489Z,5.82
2023-05-14T19:50:29.882Z,6.07
2023-05-14T19:52:58.381Z,5.57
2023-05-14T19:55:29.001Z,5.60
2023-05-14T19:57:56.468Z,5.43
2023-05-14T20:00:26.353Z,5.85
2023-05-14T20:02:53.062Z,5.07
2023-05-14T20:05:19.373Z,5.63
2023-05-14T20:07:48.729Z,4.88
2023-05-14T20:10:14.956Z,5.00
2023-05-14T20:12:41.445Z,5.13
2023-05-14T20:15:10.497Z,5.63
2023-05-14T20:17:44.247Z,5.00
2023-05-14T20:20:13.907Z,5.28
2023-05-14T20:22:40.362Z,4.93
2023-05-14T20:25:06.845Z,4.88
2023-05-14T20:27:36.152Z,5.53
2023-05-14T20:30:02.533Z,4.70
2023-05-14T20:32:28.755Z,4.85
2023-05-14T20:34:55.581Z,5.20
2023-05-14T20:37:24.756Z,4.53
2023-05-14T20:39:51.072Z,4.90
2023-05-14T20:42:17.279Z,4.18
2023-05-14T20:44:43.571Z,4.40
2023-05-14T20:47:09.977Z,5.53
2023-05-14T20:49:37.363Z,4.60
2023-05-14T20:52:03.692Z,4.88
2023-05-14T20:54:31.848Z,4.80
2023-05-14T20:56:58.101Z,5.28
2023-05-14T20:59:24.538Z,4.63
2023-05-14T21:01:51.125Z,4.68
2023-05-14T21:04:17.555Z,4.75
2023-05-14T21:06:43.895Z,4.47
2023-05-14T21:09:10.103Z,4.40
2023-05-14T21:11:36.487Z,5.45
2023-05-14T21:14:02.926Z,5.57
2023-05-14T21:16:29.955Z,5.25
2023-05-14T21:18:57.287Z,4.05
2023-05-14T21:21:25.841Z,5.20
2023-05-14T21:23:52.097Z,5.28
2023-05-14T21:26:20.323Z,4.70
2023-05-14T21:28:46.533Z,5.55
2023-05-14T21:31:12.796Z,4.28
2023-05-14T21:33:40.243Z,5.22
2023-05-14T21:36:09.746Z,4.55
2023-05-14T21:38:36.109Z,5.43
2023-05-14T21:41:06.068Z,5.43
2023-05-14T21:43:36.421Z,5.22
2023-05-14T21:46:02.659Z,4.47
2023-05-14T21:48:31.594Z,4.72
2023-05-14T21:50:58.100Z,4.30
2023-05-14T21:53:29.180Z,3.92
2023-05-14T21:56:02.716Z,4.72
2023-05-14T21:58:37.956Z,4.85
2023-05-14T22:01:04.244Z,4.68
2023-05-14T22:03:30.561Z,4.90
2023-05-14T22:05:56.999Z,4.80
2023-05-14T22:08:23.817Z,3.63
2023-05-14T22:10:50.015Z,4.45
2023-05-14T22:13:20.514Z,4.15
2023-05-14T22:15:46.829Z,4.80
2023-05-14T22:18:16.960Z,5.30
2023-05-14T22:20:43.209Z,4.40
2023-05-14T22:23:09.679Z,4.63
2023-05-14T22:25:40.689Z,4.45
2023-05-14T22:28:06.904Z,4.45
2023-05-14T22:30:35.778Z,5.70
2023-05-14T22:33:02.092Z,5.63
2023-05-14T22:35:31.296Z,4.95
2023-05-14T22:37:57.503Z,4.60
2023-05-14T22:40:23.694Z,4.97
2023-05-14T22:42:49.945Z,4.10
2023-05-14T22:45:16.214Z,4.82
2023-05-14T22:47:43.619Z,4.82
2023-05-14T22:50:12.291Z,4.65
2023-05-14T22:52:38.862Z,4.95
2023-05-14T22:55:05.367Z,4.53
2023-05-14T22:57:34.379Z,5.00
2023-05-14T23:00:00.795Z,5.45
2023-05-14T23:02:27.110Z,5.13
2023-05-14T23:04:53.464Z,5.65
2023-05-14T23:07:28.199Z,5.53
2023-05-14T23:09:54.433Z,5.63
2023-05-14T23:12:20.660Z,6.15
2023-05-14T23:14:48.048Z,5.90
2023-05-14T23:17:28.708Z,4.95
2023-05-14T23:19:55.096Z,4.80
2023-05-14T23:22:22.491Z,5.45
2023-05-14T23:24:51.251Z,4.97
2023-05-14T23:27:21.249Z,6.13
2023-05-14T23:29:49.044Z,4.85
2023-05-14T23:32:15.551Z,5.90
2023-05-14T23:34:41.807Z,7.07
2023-05-14T23:37:08.006Z,6.20
2023-05-14T23:39:34.251Z,6.03
2023-05-14T23:42:00.658Z,5.85
2023-05-14T23:44:26.867Z,5.50
2023-05-14T23:46:53.268Z,6.70
2023-05-14T23:49:19.483Z,5.88
2023-05-14T23:51:45.766Z,6.18
2023-05-14T23:54:12.113Z,6.32
2023-05-14T23:56:38.640Z,6.22
2023-05-14T23:59:07.483Z,7.00
